createdAt,value
2022-11-07T00:02:02.337Z,12.90
2022-11-07T00:04:31.522Z,14.50
2022-11-07T00:06:59.932Z,14.20
2022-11-07T00:09:27.921Z,17.20
2022-11-07T00:11:56.452Z,15.60
2022-11-07T00:14:24.218Z,16.10
2022-11-07T00:16:52.502Z,21.50
2022-11-07T00:19:22.154Z,20.40
2022-11-07T00:21:50.074Z,15.10
2022-11-07T00:24:18.824Z,19.80
2022-11-07T00:26:47.712Z,21.90
2022-11-07T00:29:18.182Z,20.20
2022-11-07T00:34:14.854Z,20.30
2022-11-07T00:36:42.757Z,20.10
2022-11-07T00:39:11.445Z,18.50
2022-11-07T00:41:39.309Z,16.80
2022-11-07T00:44:07.238Z,16.60
2022-11-07T00:46:35.051Z,17.70
2022-11-07T00:49:03.731Z,17.10
2022-11-07T00:51:32.212Z,15.70
2022-11-07T00:54:03.311Z,18.40
2022-11-07T00:56:31.277Z,15.30
2022-11-07T00:59:00.952Z,15.40
2022-11-07T01:01:32.198Z,15.50
2022-11-07T01:04:19.327Z,18.40
2022-11-07T01:06:47.670Z,12.90
2022-11-07T01:09:21.295Z,15.10
2022-11-07T01:11:49.317Z,14.30
2022-11-07T01:14:19.187Z,14.10
2022-11-07T01:16:47.801Z,12.30
2022-11-07T01:19:15.736Z,16.20
2022-11-07T01:21:44.264Z,12.10
2022-11-07T01:24:13.858Z,13.10
2022-11-07T01:26:43.846Z,12.80
2022-11-07T01:29:11.701Z,13.90
2022-11-07T01:31:40.122Z,14.90
2022-11-07T01:34:07.994Z,13.80
2022-11-07T01:36:35.781Z,16.60
2022-11-07T01:39:05.108Z,16.70
2022-11-07T01:41:36.861Z,12.40
2022-11-07T01:44:25.055Z,11.80
2022-11-07T01:46:56.351Z,12.70
2022-11-07T01:49:26.468Z,14.10
2022-11-07T01:52:06.841Z,11.60
2022-11-07T01:54:59.516Z,11.90
2022-11-07T01:57:32.456Z,14.40
2022-11-07T02:00:03.212Z,10.10
2022-11-07T02:02:32.997Z,12.90
2022-11-07T02:05:03.592Z,12.20
2022-11-07T02:07:32.833Z,11.30
2022-11-07T02:10:02.506Z,11.90
2022-11-07T02:12:30.377Z,13.40
2022-11-07T02:14:59.868Z,10.40
2022-11-07T02:17:27.729Z,11.30
2022-11-07T02:19:56.816Z,10.00
2022-11-07T02:22:35.633Z,10.30
2022-11-07T02:25:12.872Z,10.60
2022-11-07T02:27:42.092Z,11.00
2022-11-07T02:30:17.007Z,13.50
2022-11-07T02:32:44.864Z,11.00
2022-11-07T02:35:45.222Z,8.60
2022-11-07T02:38:26.704Z,11.20
2022-11-07T02:40:58.698Z,12.70
2022-11-07T02:43:29.309Z,9.50
2022-11-07T02:46:00.522Z,11.50
2022-11-07T02:48:33.340Z,9.00
2022-11-07T02:51:01.150Z,11.10
2022-11-07T02:53:28.948Z,10.50
2022-11-07T02:55:56.692Z,11.50
2022-11-07T02:58:24.547Z,8.50
2022-11-07T03:00:52.268Z,10.60
2022-11-07T03:03:20.037Z,11.80
2022-11-07T03:05:47.788Z,9.60
2022-11-07T03:08:15.563Z,9.10
2022-11-07T03:10:43.348Z,10.10
2022-11-07T03:13:11.336Z,13.00
2022-11-07T03:15:39.210Z,10.40
2022-11-07T03:18:06.948Z,12.70
2022-11-07T03:20:34.730Z,9.90
2022-11-07T03:23:03.072Z,10.80
2022-11-07T03:25:30.814Z,11.10
2022-11-07T03:27:58.596Z,9.60
2022-11-07T03:30:26.804Z,9.80
2022-11-07T03:32:55.504Z,10.80
2022-11-07T03:35:23.776Z,10.20
2022-11-07T03:37:51.625Z,8.70
2022-11-07T03:40:19.430Z,8.90
2022-11-07T03:42:47.513Z,12.20
2022-11-07T03:45:16.481Z,9.40
2022-11-07T03:47:46.713Z,12.00
2022-11-07T03:50:17.906Z,11.20
2022-11-07T03:52:46.493Z,10.30
2022-11-07T03:55:18.544Z,11.00
2022-11-07T03:57:46.930Z,8.70
2022-11-07T04:00:16.238Z,8.30
2022-11-07T04:02:44.367Z,8.40
2022-11-07T04:05:12.507Z,8.10
2022-11-07T04:07:41.090Z,6.20
2022-11-07T04:10:09.275Z,10.70
2022-11-07T04:12:55.830Z,8.70
2022-11-07T04:15:42.163Z,7.00
2022-11-07T04:18:10.041Z,6.60
2022-11-07T04:20:37.934Z,7.30
2022-11-07T04:23:05.927Z,10.10
2022-11-07T04:25:52.407Z,8.80
2022-11-07T04:28:20.281Z,9.10
2022-11-07T04:30:48.017Z,6.70
2022-11-07T04:33:16.091Z,7.10
2022-11-07T04:35:44.207Z,6.90
2022-11-07T04:38:12.104Z,8.30
2022-11-07T04:40:40.284Z,6.70
2022-11-07T04:43:12.781Z,5.60
2022-11-07T04:45:41.343Z,5.50
2022-11-07T04:48:12.398Z,8.60
2022-11-07T04:50:41.044Z,5.90
2022-11-07T04:53:12.681Z,6.30
2022-11-07T04:55:41.265Z,5.00
2022-11-07T04:58:09.755Z,5.20
2022-11-07T05:00:37.873Z,6.50
2022-11-07T05:03:05.677Z,4.20
2022-11-07T05:05:33.748Z,4.30
2022-11-07T05:11:17.362Z,5.60
2022-11-07T05:13:45.161Z,6.30
2022-11-07T05:16:17.284Z,6.10
2022-11-07T05:18:45.730Z,3.90
2022-11-07T05:21:13.542Z,5.50
2022-11-07T05:23:43.479Z,4.20
2022-11-07T05:26:11.328Z,4.10
2022-11-07T05:28:40.008Z,4.20
2022-11-07T05:31:09.060Z,4.50
2022-11-07T05:33:36.873Z,4.70
2022-11-07T05:36:13.605Z,3.70
2022-11-07T05:38:47.470Z,3.90
2022-11-07T05:41:17.001Z,3.40
2022-11-07T05:43:44.872Z,5.40
2022-11-07T05:46:13.437Z,4.80
2022-11-07T05:48:41.861Z,4.90
2022-11-07T05:51:09.732Z,3.50
2022-11-07T05:53:37.636Z,4.70
2022-11-07T05:56:05.821Z,4.80
2022-11-07T05:58:33.742Z,3.70
2022-11-07T06:01:06.527Z,5.00
2022-11-07T06:03:34.363Z,3.90
2022-11-07T06:06:02.135Z,3.90
2022-11-07T06:08:30.034Z,4.50
2022-11-07T06:10:57.801Z,5.10
2022-11-07T06:13:25.683Z,5.00
2022-11-07T06:15:53.489Z,3.90
2022-11-07T06:18:22.495Z,3.70
2022-11-07T06:20:50.356Z,3.90
2022-11-07T06:23:18.697Z,4.90
2022-11-07T06:25:47.299Z,3.80
2022-11-07T06:28:15.578Z,4.30
2022-11-07T06:30:44.085Z,4.70
2022-11-07T06:33:15.345Z,3.80
2022-11-07T06:35:43.984Z,3.50
2022-11-07T06:38:13.858Z,5.20
2022-11-07T06:40:43.039Z,4.00
2022-11-07T06:43:19.328Z,3.30
2022-11-07T06:45:48.378Z,4.10
2022-11-07T06:48:16.643Z,3.60
2022-11-07T06:50:44.397Z,4.30
2022-11-07T06:53:14.092Z,3.80
2022-11-07T06:55:42.384Z,5.10
2022-11-07T06:58:10.663Z,3.70
2022-11-07T07:00:38.604Z,3.30
2022-11-07T07:03:06.574Z,4.00
2022-11-07T07:05:35.073Z,4.20
2022-11-07T07:08:04.227Z,3.10
2022-11-07T07:10:36.669Z,4.40
2022-11-07T07:13:04.505Z,4.00
2022-11-07T07:15:49.407Z,5.20
2022-11-07T07:18:19.838Z,4.00
2022-11-07T07:20:49.314Z,4.30
2022-11-07T07:23:21.517Z,3.30
2022-11-07T07:25:49.650Z,3.20
2022-11-07T07:28:17.625Z,3.80
2022-11-07T07:30:50.503Z,3.90
2022-11-07T07:33:21.121Z,4.00
2022-11-07T07:35:48.910Z,3.10
2022-11-07T07:38:16.758Z,3.70
2022-11-07T07:40:44.533Z,3.90
2022-11-07T07:43:12.519Z,4.80
2022-11-07T07:45:41.423Z,4.30
2022-11-07T07:48:09.581Z,5.90
2022-11-07T07:50:37.364Z,4.90
2022-11-07T07:53:09.060Z,4.00
2022-11-07T07:55:37.325Z,4.20
2022-11-07T07:58:05.341Z,4.20
2022-11-07T08:00:33.285Z,4.70
2022-11-07T08:03:04.182Z,5.60
2022-11-07T08:05:32.139Z,4.00
2022-11-07T08:08:00.084Z,4.30
2022-11-07T08:10:41.379Z,5.80
2022-11-07T08:13:10.199Z,4.40
2022-11-07T08:15:38.669Z,5.00
2022-11-07T08:18:07.000Z,5.50
2022-11-07T08:20:34.814Z,5.10
2022-11-07T08:23:12.916Z,5.50
2022-11-07T08:26:04.950Z,4.20
2022-11-07T08:28:36.006Z,6.40
2022-11-07T08:31:07.042Z,5.00
2022-11-07T08:33:35.740Z,4.50
2022-11-07T08:36:05.549Z,4.90
2022-11-07T08:38:35.456Z,4.20
2022-11-07T08:41:06.335Z,5.30
2022-11-07T08:43:34.361Z,4.30
2022-11-07T08:46:02.698Z,4.10
2022-11-07T08:48:31.425Z,5.60
2022-11-07T08:50:59.461Z,5.00
2022-11-07T08:53:27.472Z,5.90
2022-11-07T08:56:03.736Z,5.30
2022-11-07T08:58:31.631Z,6.10
2022-11-07T09:00:59.624Z,5.10
2022-11-07T09:06:15.504Z,4.40
2022-11-07T09:08:44.339Z,7.20
2022-11-07T09:11:15.781Z,7.30
2022-11-07T09:13:43.900Z,7.70
2022-11-07T09:16:11.833Z,4.50
2022-11-07T09:18:39.606Z,4.30
2022-11-07T09:21:07.442Z,4.20
2022-11-07T09:23:35.210Z,5.00
2022-11-07T09:26:03.387Z,3.20
2022-11-07T09:28:31.184Z,5.40
2022-11-07T09:31:00.652Z,4.60
2022-11-07T09:33:29.190Z,5.10
2022-11-07T09:36:01.563Z,3.50
2022-11-07T09:38:29.976Z,4.20
2022-11-07T09:41:05.774Z,3.80
2022-11-07T09:43:52.835Z,4.40
2022-11-07T09:47:06.570Z,4.30
2022-11-07T09:49:38.205Z,4.90
2022-11-07T09:52:35.816Z,3.90
2022-11-07T09:55:29.092Z,6.20
2022-11-07T09:58:02.632Z,4.20
2022-11-07T10:00:32.212Z,4.60
2022-11-07T10:03:02.162Z,4.90
2022-11-07T10:05:54.442Z,6.70
2022-11-07T10:08:32.312Z,6.00
2022-11-07T10:11:07.995Z,3.80
2022-11-07T10:13:45.593Z,3.90
2022-11-07T10:16:19.452Z,5.80
2022-11-07T10:19:04.783Z,3.40
2022-11-07T10:21:42.991Z,2.70
2022-11-07T10:24:16.909Z,2.90
2022-11-07T10:26:45.385Z,4.20
2022-11-07T10:29:53.894Z,2.70
2022-11-07T10:32:52.283Z,3.90
2022-11-07T10:35:31.191Z,3.00
2022-11-07T10:38:01.845Z,2.20
2022-11-07T10:40:40.331Z,3.10
2022-11-07T10:43:20.020Z,3.50
2022-11-07T10:45:49.032Z,4.20
2022-11-07T10:48:17.078Z,5.10
2022-11-07T10:50:53.484Z,4.00
2022-11-07T10:55:52.052Z,3.60
2022-11-07T10:58:23.278Z,6.50
2022-11-07T11:01:09.376Z,3.90
2022-11-07T11:03:46.271Z,4.00
2022-11-07T11:06:23.284Z,2.30
2022-11-07T11:08:52.603Z,3.30
2022-11-07T11:11:31.230Z,3.00
2022-11-07T11:14:14.223Z,6.20
2022-11-07T11:16:43.479Z,9.90
2022-11-07T11:19:22.866Z,6.30
2022-11-07T11:21:53.201Z,4.00
2022-11-07T11:27:03.561Z,4.60
2022-11-07T11:29:39.849Z,6.10
2022-11-07T11:32:21.419Z,3.80
2022-11-07T11:34:58.206Z,2.70
2022-11-07T11:37:27.361Z,2.70
2022-11-07T11:39:58.247Z,4.30
2022-11-07T11:42:38.486Z,5.30
2022-11-07T11:45:19.926Z,4.50
2022-11-07T11:47:55.819Z,6.40
2022-11-07T11:50:38.695Z,3.60
2022-11-07T11:53:13.641Z,3.70
2022-11-07T11:55:52.460Z,4.70
2022-11-07T11:58:36.678Z,4.30
2022-11-07T12:01:18.426Z,2.80
2022-11-07T12:03:46.317Z,3.30
2022-11-07T12:06:26.016Z,4.40
2022-11-07T12:09:29.474Z,3.90
2022-11-07T12:12:12.837Z,3.30
2022-11-07T12:15:04.483Z,3.40
2022-11-07T12:17:41.041Z,2.90
2022-11-07T12:20:18.910Z,3.40
2022-11-07T12:22:58.047Z,5.10
2022-11-07T12:25:30.541Z,2.90
2022-11-07T12:30:16.751Z,3.80
2022-11-07T12:33:22.534Z,4.10
2022-11-07T12:38:42.574Z,3.60
2022-11-07T12:54:49.620Z,3.80
2022-11-07T12:57:21.898Z,3.50
2022-11-07T12:59:57.751Z,2.60
2022-11-07T13:02:58.374Z,2.80
2022-11-07T13:05:28.333Z,3.30
2022-11-07T13:13:38.412Z,3.30
2022-11-07T13:18:55.047Z,3.40
2022-11-07T13:21:23.042Z,4.60
2022-11-07T13:23:50.894Z,5.70
2022-11-07T13:26:46.270Z,5.80
2022-11-07T13:29:36.679Z,3.70
2022-11-07T13:32:13.115Z,4.80
2022-11-07T13:34:48.090Z,4.20
2022-11-07T13:37:20.677Z,5.90
2022-11-07T13:39:54.875Z,3.80
2022-11-07T13:42:25.739Z,4.20
2022-11-07T13:45:02.621Z,4.40
2022-11-07T13:47:40.607Z,3.80
2022-11-07T13:50:19.146Z,3.10
2022-11-07T13:53:08.354Z,5.00
2022-11-07T13:55:57.803Z,3.60
2022-11-07T13:58:28.602Z,4.60
2022-11-07T14:01:03.415Z,3.80
2022-11-07T14:03:31.219Z,5.30
2022-11-07T14:05:59.146Z,4.80
2022-11-07T14:08:33.406Z,4.20
2022-11-07T14:11:01.502Z,7.00
2022-11-07T14:13:41.605Z,3.80
2022-11-07T14:16:21.758Z,5.50
2022-11-07T14:18:56.732Z,4.60
2022-11-07T14:21:30.086Z,9.90
2022-11-07T14:23:58.419Z,5.90
2022-11-07T14:26:30.884Z,7.90
2022-11-07T14:29:03.776Z,5.30
2022-11-07T14:31:35.718Z,6.30
2022-11-07T14:34:23.881Z,5.60
2022-11-07T14:36:51.664Z,7.10
2022-11-07T14:39:22.591Z,5.40
2022-11-07T14:41:51.729Z,5.50
2022-11-07T14:44:28.416Z,5.10
2022-11-07T14:47:05.952Z,4.40
2022-11-07T14:49:41.581Z,6.30
2022-11-07T14:52:25.544Z,5.80
2022-11-07T14:55:13.121Z,4.60
2022-11-07T14:57:41.939Z,3.90
2022-11-07T15:00:16.452Z,3.50
2022-11-07T15:02:48.953Z,3.60
2022-11-07T15:05:31.775Z,3.90
2022-11-07T15:08:01.280Z,5.30
2022-11-07T15:10:36.294Z,4.40
2022-11-07T15:13:28.661Z,4.20
2022-11-07T15:16:08.267Z,6.30
2022-11-07T15:18:42.026Z,4.80
2022-11-07T15:21:29.206Z,5.80
2022-11-07T15:24:00.549Z,4.50
2022-11-07T15:26:35.727Z,5.90
2022-11-07T15:29:21.414Z,4.70
2022-11-07T15:31:50.008Z,4.90
2022-11-07T15:34:33.647Z,4.80
2022-11-07T15:40:01.181Z,4.00
2022-11-07T15:42:30.036Z,5.20
2022-11-07T15:44:58.197Z,4.00
2022-11-07T15:47:26.561Z,5.60
2022-11-07T15:49:55.690Z,4.90
2022-11-07T15:52:23.851Z,4.20
2022-11-07T15:54:51.955Z,5.50
2022-11-07T15:57:20.688Z,8.10
2022-11-07T15:59:48.827Z,6.00
2022-11-07T16:02:18.221Z,7.50
2022-11-07T16:04:47.281Z,7.70
2022-11-07T16:07:20.097Z,6.60
2022-11-07T16:09:51.645Z,5.20
2022-11-07T16:12:20.506Z,4.80
2022-11-07T16:14:48.632Z,6.90
2022-11-07T16:17:19.500Z,7.80
2022-11-07T16:19:48.656Z,8.40
2022-11-07T16:22:18.146Z,5.80
2022-11-07T16:24:52.262Z,5.30
2022-11-07T16:27:22.842Z,6.80
2022-11-07T16:29:50.928Z,4.70
2022-11-07T16:32:19.378Z,4.70
2022-11-07T16:34:48.092Z,6.30
2022-11-07T16:37:16.321Z,4.80
2022-11-07T16:39:45.103Z,6.40
2022-11-07T16:42:19.518Z,6.50
2022-11-07T16:44:51.861Z,9.20
2022-11-07T16:47:25.424Z,12.90
2022-11-07T16:49:56.089Z,14.40
2022-11-07T16:52:25.520Z,15.70
2022-11-07T16:54:53.366Z,18.00
2022-11-07T16:57:25.726Z,22.20
2022-11-07T16:59:54.808Z,19.40
2022-11-07T17:02:31.151Z,22.00
2022-11-07T17:04:59.816Z,20.40
2022-11-07T17:07:27.878Z,21.80
2022-11-07T17:09:56.114Z,17.70
2022-11-07T17:12:24.644Z,20.70
2022-11-07T17:14:54.307Z,20.10
2022-11-07T17:17:22.804Z,17.90
2022-11-07T17:19:50.682Z,19.40
2022-11-07T17:22:18.481Z,18.10
2022-11-07T17:24:46.364Z,22.40
2022-11-07T17:27:25.633Z,18.30
2022-11-07T17:29:54.232Z,23.10
2022-11-07T17:32:22.484Z,49.10
2022-11-07T17:35:10.623Z,72.40
2022-11-07T17:37:38.755Z,29.30
2022-11-07T17:40:07.138Z,29.00
2022-11-07T17:42:38.047Z,22.80
2022-11-07T17:45:07.187Z,24.50
2022-11-07T17:47:36.287Z,18.30
2022-11-07T17:50:05.152Z,20.10
2022-11-07T17:52:32.914Z,19.50
2022-11-07T17:55:00.723Z,15.30
2022-11-07T17:57:28.546Z,16.70
2022-11-07T17:59:56.442Z,17.40
2022-11-07T18:02:24.673Z,15.00
2022-11-07T18:04:52.633Z,13.00
2022-11-07T18:07:20.475Z,13.60
2022-11-07T18:09:49.739Z,10.40
2022-11-07T18:12:17.557Z,13.50
2022-11-07T18:14:45.348Z,11.00
2022-11-07T18:17:13.163Z,7.00
2022-11-07T18:19:40.927Z,10.30
2022-11-07T18:22:08.754Z,21.00
2022-11-07T18:24:36.874Z,28.10
2022-11-07T18:27:10.103Z,21.00
2022-11-07T18:29:41.841Z,17.50
2022-11-07T18:32:09.749Z,18.00
2022-11-07T18:34:37.608Z,14.50
2022-11-07T18:37:05.422Z,16.30
2022-11-07T18:39:33.491Z,14.40
2022-11-07T18:42:01.984Z,13.10
2022-11-07T18:44:29.822Z,14.10
2022-11-07T18:46:57.792Z,9.60
2022-11-07T18:49:25.694Z,6.40
2022-11-07T18:51:53.557Z,7.20
2022-11-07T18:54:22.244Z,6.50
2022-11-07T18:56:50.105Z,7.40
2022-11-07T18:59:17.888Z,10.20
2022-11-07T19:01:46.107Z,11.60
2022-11-07T19:04:14.035Z,11.30
2022-11-07T19:06:56.985Z,12.00
2022-11-07T19:09:31.773Z,12.10
2022-11-07T19:12:00.565Z,12.60
2022-11-07T19:14:30.978Z,14.10
2022-11-07T19:16:58.882Z,10.30
2022-11-07T19:19:26.918Z,10.40
2022-11-07T19:21:54.686Z,9.00
2022-11-07T19:24:22.484Z,9.80
2022-11-07T19:26:50.414Z,11.90
2022-11-07T19:29:18.350Z,11.20
2022-11-07T19:31:46.289Z,11.80
2022-11-07T19:34:16.933Z,10.10
2022-11-07T19:39:12.412Z,13.40
2022-11-07T19:41:40.198Z,10.90
2022-11-07T19:44:08.200Z,11.80
2022-11-07T19:46:36.034Z,14.20
2022-11-07T19:49:04.167Z,12.00
2022-11-07T19:51:32.094Z,11.60
2022-11-07T19:54:00.931Z,12.00
2022-11-07T19:56:31.798Z,10.90
2022-11-07T19:59:01.581Z,13.40
2022-11-07T20:01:32.601Z,14.30
2022-11-07T20:04:01.835Z,13.60
2022-11-07T20:06:36.406Z,15.00
2022-11-07T20:09:09.164Z,10.40
2022-11-07T20:11:37.067Z,14.70
2022-11-07T20:14:05.701Z,13.00
2022-11-07T20:16:34.147Z,12.00
2022-11-07T20:19:02.340Z,11.10
2022-11-07T20:21:31.013Z,10.40
2022-11-07T20:23:59.870Z,12.00
2022-11-07T20:26:31.178Z,11.30
2022-11-07T20:28:59.520Z,13.10
2022-11-07T20:31:30.467Z,11.70
2022-11-07T20:34:02.950Z,13.10
2022-11-07T20:36:31.834Z,11.80
2022-11-07T20:39:01.202Z,11.50
2022-11-07T20:41:29.125Z,10.50
2022-11-07T20:44:06.074Z,14.70
2022-11-07T20:46:36.845Z,14.50
2022-11-07T20:51:34.294Z,15.80
2022-11-07T20:54:02.856Z,12.60
2022-11-07T20:56:30.712Z,11.90
2022-11-07T20:58:58.702Z,10.90
2022-11-07T21:01:38.016Z,9.60
2022-11-07T21:04:08.457Z,9.40
2022-11-07T21:06:36.848Z,10.60
2022-11-07T21:09:05.331Z,11.90
2022-11-07T21:11:33.629Z,13.20
2022-11-07T21:14:01.562Z,12.30
2022-11-07T21:16:29.812Z,9.30
2022-11-07T21:18:57.605Z,9.60
2022-11-07T21:21:27.882Z,8.30
2022-11-07T21:24:31.140Z,7.80
2022-11-07T21:26:59.640Z,9.40
2022-11-07T21:29:29.838Z,8.30
2022-11-07T21:31:57.968Z,9.40
2022-11-07T21:34:25.793Z,10.20
2022-11-07T21:36:53.735Z,9.70
2022-11-07T21:39:21.596Z,11.30
2022-11-07T21:41:49.667Z,7.80
2022-11-07T21:44:17.507Z,8.90
2022-11-07T21:46:45.503Z,7.90
2022-11-07T21:49:13.536Z,9.10
2022-11-07T21:51:41.455Z,8.60
2022-11-07T21:54:10.279Z,8.40
2022-11-07T21:56:39.541Z,9.80
2022-11-07T21:59:10.463Z,8.90
2022-11-07T22:01:39.368Z,10.10
2022-11-07T22:04:11.487Z,8.30
2022-11-07T22:06:44.964Z,8.40
2022-11-07T22:09:19.578Z,8.10
2022-11-07T22:11:48.608Z,11.20
2022-11-07T22:14:18.962Z,9.40
2022-11-07T22:16:47.565Z,10.60
2022-11-07T22:19:16.971Z,9.10
2022-11-07T22:21:44.881Z,8.20
2022-11-07T22:24:12.764Z,7.70
2022-11-07T22:26:40.773Z,6.90
2022-11-07T22:29:08.570Z,6.60
2022-11-07T22:31:36.463Z,9.60
2022-11-07T22:34:04.376Z,13.00
2022-11-07T22:36:32.229Z,9.10
2022-11-07T22:39:00.157Z,9.70
2022-11-07T22:41:29.306Z,7.80
2022-11-07T22:43:57.806Z,8.10
2022-11-07T22:46:30.917Z,8.60
2022-11-07T22:48:59.681Z,6.20
2022-11-07T22:51:32.940Z,6.40
2022-11-07T22:54:10.060Z,8.20
2022-11-07T22:56:38.042Z,8.70
2022-11-07T22:59:06.525Z,8.80
2022-11-07T23:01:37.453Z,9.10
2022-11-07T23:04:06.632Z,9.50
2022-11-07T23:06:34.934Z,8.20
2022-11-07T23:09:03.137Z,8.50
2022-11-07T23:11:51.355Z,7.40
2022-11-07T23:14:21.533Z,6.50
2022-11-07T23:16:52.030Z,6.80
2022-11-07T23:19:22.777Z,6.40
2022-11-07T23:21:52.455Z,8.60
2022-11-07T23:24:20.852Z,9.20
2022-11-07T23:26:49.175Z,7.90
2022-11-07T23:29:20.369Z,8.00
2022-11-07T23:31:50.007Z,7.20
2022-11-07T23:34:19.903Z,6.10
2022-11-07T23:36:50.690Z,5.60
2022-11-07T23:39:21.072Z,5.70
2022-11-07T23:41:49.319Z,7.70
2022-11-07T23:44:17.241Z,8.20
2022-11-07T23:47:04.287Z,7.00
2022-11-07T23:49:50.802Z,8.30
2022-11-07T23:52:19.016Z,8.20
2022-11-07T23:55:05.657Z,6.00
2022-11-07T23:57:55.463Z,7.00
